sensor_id;sensor_type;location;lat;lon;timestamp;temperature;humidity
6536;DHT22;34330;52.08032700;5.40923460;2024-03-06T00:02:27;10.60;95.50
6536;DHT22;34330;52.08032700;5.40923460;2024-03-06T00:04:58;10.60;95.50
6536;DHT22;34330;52.08032700;5.40923460;2024-03-06T00:07:26;12.50;96.30
6536;DHT22;34330;52.08032700;5.40923460;2024-03-06T00:09:54;10.90;95.50
6536;DHT22;34330;52.08032700;5.40923460;2024-03-06T00:12:26;11.20;95.50
6536;DHT22;34330;52.08032700;5.40923460;2024-03-06T00:14:54;10.40;95.10
6536;DHT22;34330;52.08032700;5.40923460;2024-03-06T00:17:24;10.40;95.20
6536;DHT22;34330;52.08032700;5.40923460;2024-03-06T00:19:52;10.30;95.10
6536;DHT22;34330;52.08032700;5.40923460;2024-03-06T00:22:20;10.30;95.20
6536;DHT22;34330;52.08032700;5.40923460;2024-03-06T00:24:51;10.30;95.20
6536;DHT22;34330;52.08032700;5.40923460;2024-03-06T00:27:19;10.20;95.20
6536;DHT22;34330;52.08032700;5.40923460;2024-03-06T00:29:48;10.20;95.20
6536;DHT22;34330;52.08032700;5.40923460;2024-03-06T00:32:16;10.20;95.10
6536;DHT22;34330;52.08032700;5.40923460;2024-03-06T00:34:43;10.20;95.10
6536;DHT22;34330;52.08032700;5.40923460;2024-03-06T00:37:11;10.10;95.20
6536;DHT22;34330;52.08032700;5.40923460;2024-03-06T00:39:39;10.10;95.20
6536;DHT22;34330;52.08032700;5.40923460;2024-03-06T00:42:07;10.10;95.20
6536;DHT22;34330;52.08032700;5.40923460;2024-03-06T00:44:36;10.00;95.10
6536;DHT22;34330;52.08032700;5.40923460;2024-03-06T00:47:06;10.00;95.10
6536;DHT22;34330;52.08032700;5.40923460;2024-03-06T00:49:34;10.00;95.00
6536;DHT22;34330;52.08032700;5.40923460;2024-03-06T00:52:02;9.90;95.50
6536;DHT22;34330;52.08032700;5.40923460;2024-03-06T00:54:30;9.90;95.40
6536;DHT22;34330;52.08032700;5.40923460;2024-03-06T00:56:58;9.80;95.30
6536;DHT22;34330;52.08032700;5.40923460;2024-03-06T00:59:28;10.00;94.90
6536;DHT22;34330;52.08032700;5.40923460;2024-03-06T01:01:56;9.70;95.40
6536;DHT22;34330;52.08032700;5.40923460;2024-03-06T01:04:28;9.70;95.30
6536;DHT22;34330;52.08032700;5.40923460;2024-03-06T01:06:56;9.70;95.30
6536;DHT22;34330;52.08032700;5.40923460;2024-03-06T01:09:25;9.60;95.30
6536;DHT22;34330;52.08032700;5.40923460;2024-03-06T01:11:53;9.60;95.30
6536;DHT22;34330;52.08032700;5.40923460;2024-03-06T01:14:22;9.60;95.40
6536;DHT22;34330;52.08032700;5.40923460;2024-03-06T01:16:49;9.60;95.40
6536;DHT22;34330;52.08032700;5.40923460;2024-03-06T01:19:17;9.50;95.30
6536;DHT22;34330;52.08032700;5.40923460;2024-03-06T01:21:47;9.50;95.50
6536;DHT22;34330;52.08032700;5.40923460;2024-03-06T01:24:15;9.50;95.50
6536;DHT22;34330;52.08032700;5.40923460;2024-03-06T01:26:44;9.50;95.40
6536;DHT22;34330;52.08032700;5.40923460;2024-03-06T01:29:12;9.40;95.40
6536;DHT22;34330;52.08032700;5.40923460;2024-03-06T01:31:40;9.40;95.40
6536;DHT22;34330;52.08032700;5.40923460;2024-03-06T01:34:08;9.40;95.60
6536;DHT22;34330;52.08032700;5.40923460;2024-03-06T01:36:36;9.50;95.60
6536;DHT22;34330;52.08032700;5.40923460;2024-03-06T01:39:05;9.40;95.60
6536;DHT22;34330;52.08032700;5.40923460;2024-03-06T01:41:33;9.30;95.60
6536;DHT22;34330;52.08032700;5.40923460;2024-03-06T01:44:01;9.30;95.60
6536;DHT22;34330;52.08032700;5.40923460;2024-03-06T01:46:30;9.30;95.60
6536;DHT22;34330;52.08032700;5.40923460;2024-03-06T01:48:58;9.30;95.70
6536;DHT22;34330;52.08032700;5.40923460;2024-03-06T01:51:30;9.30;95.70
6536;DHT22;34330;52.08032700;5.40923460;2024-03-06T01:54:00;9.30;95.60
6536;DHT22;34330;52.08032700;5.40923460;2024-03-06T01:56:33;9.20;95.60
6536;DHT22;34330;52.08032700;5.40923460;2024-03-06T01:59:02;9.20;95.60
6536;DHT22;34330;52.08032700;5.40923460;2024-03-06T02:01:31;7.90;95.10
6536;DHT22;34330;52.08032700;5.40923460;2024-03-06T02:04:00;9.20;95.70
6536;DHT22;34330;52.08032700;5.40923460;2024-03-06T02:06:29;9.10;95.50
6536;DHT22;34330;52.08032700;5.40923460;2024-03-06T02:08:58;9.20;95.70
6536;DHT22;34330;52.08032700;5.40923460;2024-03-06T02:11:26;9.10;95.60
6536;DHT22;34330;52.08032700;5.40923460;2024-03-06T02:13:56;9.10;95.50
6536;DHT22;34330;52.08032700;5.40923460;2024-03-06T02:16:24;9.10;95.50
6536;DHT22;34330;52.08032700;5.40923460;2024-03-06T02:18:53;9.10;95.50
6536;DHT22;34330;52.08032700;5.40923460;2024-03-06T02:21:25;9.00;95.60
6536;DHT22;34330;52.08032700;5.40923460;2024-03-06T02:23:53;9.00;95.60
6536;DHT22;34330;52.08032700;5.40923460;2024-03-06T02:26:21;9.00;95.50
6536;DHT22;34330;52.08032700;5.40923460;2024-03-06T02:28:50;9.00;95.30
6536;DHT22;34330;52.08032700;5.40923460;2024-03-06T02:31:19;9.00;95.30
6536;DHT22;34330;52.08032700;5.40923460;2024-03-06T02:33:48;8.90;95.20
6536;DHT22;34330;52.08032700;5.40923460;2024-03-06T02:36:17;8.90;95.10
6536;DHT22;34330;52.08032700;5.40923460;2024-03-06T02:38:46;8.80;95.10
6536;DHT22;34330;52.08032700;5.40923460;2024-03-06T02:41:15;8.80;95.20
6536;DHT22;34330;52.08032700;5.40923460;2024-03-06T02:43:44;8.80;95.30
6536;DHT22;34330;52.08032700;5.40923460;2024-03-06T02:46:12;8.70;95.40
6536;DHT22;34330;52.08032700;5.40923460;2024-03-06T02:48:40;8.70;95.40
6536;DHT22;34330;52.08032700;5.40923460;2024-03-06T02:51:08;8.70;95.50
6536;DHT22;34330;52.08032700;5.40923460;2024-03-06T02:53:36;8.70;95.60
6536;DHT22;34330;52.08032700;5.40923460;2024-03-06T02:56:06;8.70;95.50
6536;DHT22;34330;52.08032700;5.40923460;2024-03-06T02:58:35;8.70;95.40
6536;DHT22;34330;52.08032700;5.40923460;2024-03-06T03:01:03;8.70;95.40
6536;DHT22;34330;52.08032700;5.40923460;2024-03-06T03:03:31;8.60;95.40
6536;DHT22;34330;52.08032700;5.40923460;2024-03-06T03:05:59;8.60;95.70
6536;DHT22;34330;52.08032700;5.40923460;2024-03-06T03:08:27;8.60;95.40
6536;DHT22;34330;52.08032700;5.40923460;2024-03-06T03:10:55;8.60;95.50
6536;DHT22;34330;52.08032700;5.40923460;2024-03-06T03:13:25;8.60;95.50
6536;DHT22;34330;52.08032700;5.40923460;2024-03-06T03:15:53;8.60;95.60
6536;DHT22;34330;52.08032700;5.40923460;2024-03-06T03:18:22;8.50;95.60
6536;DHT22;34330;52.08032700;5.40923460;2024-03-06T03:20:50;8.60;95.70
6536;DHT22;34330;52.08032700;5.40923460;2024-03-06T03:23:18;8.50;95.70
6536;DHT22;34330;52.08032700;5.40923460;2024-03-06T03:25:49;8.50;95.60
6536;DHT22;34330;52.08032700;5.40923460;2024-03-06T03:28:17;8.50;95.70
6536;DHT22;34330;52.08032700;5.40923460;2024-03-06T03:30:47;8.50;95.60
6536;DHT22;34330;52.08032700;5.40923460;2024-03-06T03:33:15;8.50;95.60
6536;DHT22;34330;52.08032700;5.40923460;2024-03-06T03:35:43;8.50;95.60
6536;DHT22;34330;52.08032700;5.40923460;2024-03-06T03:38:11;8.50;95.60
6536;DHT22;34330;52.08032700;5.40923460;2024-03-06T03:40:39;8.40;95.50
6536;DHT22;34330;52.08032700;5.40923460;2024-03-06T03:43:07;8.40;95.40
6536;DHT22;34330;52.08032700;5.40923460;2024-03-06T03:45:35;8.40;95.30
6536;DHT22;34330;52.08032700;5.40923460;2024-03-06T03:48:06;8.70;95.80
6536;DHT22;34330;52.08032700;5.40923460;2024-03-06T03:50:34;8.30;95.30
6536;DHT22;34330;52.08032700;5.40923460;2024-03-06T03:53:02;8.30;95.20
6536;DHT22;34330;52.08032700;5.40923460;2024-03-06T03:55:30;8.30;95.20
6536;DHT22;34330;52.08032700;5.40923460;2024-03-06T03:57:58;8.20;95.10
6536;DHT22;34330;52.08032700;5.40923460;2024-03-06T04:00:26;8.20;94.90
6536;DHT22;34330;52.08032700;5.40923460;2024-03-06T04:02:54;8.20;94.80
6536;DHT22;34330;52.08032700;5.40923460;2024-03-06T04:05:24;8.10;94.80
6536;DHT22;34330;52.08032700;5.40923460;2024-03-06T04:07:52;8.10;94.90
6536;DHT22;34330;52.08032700;5.40923460;2024-03-06T04:10:21;8.00;94.80
6536;DHT22;34330;52.08032700;5.40923460;2024-03-06T04:12:49;8.00;94.80
6536;DHT22;34330;52.08032700;5.40923460;2024-03-06T04:15:17;8.00;95.00
6536;DHT22;34330;52.08032700;5.40923460;2024-03-06T04:17:45;7.90;95.00
6536;DHT22;34330;52.08032700;5.40923460;2024-03-06T04:20:13;7.90;95.00
6536;DHT22;34330;52.08032700;5.40923460;2024-03-06T04:22:44;7.90;94.90
6536;DHT22;34330;52.08032700;5.40923460;2024-03-06T04:25:13;7.90;94.90
6536;DHT22;34330;52.08032700;5.40923460;2024-03-06T04:27:40;7.90;94.90
6536;DHT22;34330;52.08032700;5.40923460;2024-03-06T04:30:09;7.80;95.00
6536;DHT22;34330;52.08032700;5.40923460;2024-03-06T04:32:37;7.80;95.10
6536;DHT22;34330;52.08032700;5.40923460;2024-03-06T04:35:06;7.70;95.20
6536;DHT22;34330;52.08032700;5.40923460;2024-03-06T04:37:36;7.70;95.40
6536;DHT22;34330;52.08032700;5.40923460;2024-03-06T04:40:06;7.70;95.40
6536;DHT22;34330;52.08032700;5.40923460;2024-03-06T04:42:35;7.70;95.40
6536;DHT22;34330;52.08032700;5.40923460;2024-03-06T04:45:04;7.80;95.40
6536;DHT22;34330;52.08032700;5.40923460;2024-03-06T04:47:32;7.70;95.30
6536;DHT22;34330;52.08032700;5.40923460;2024-03-06T04:50:00;7.70;95.40
6536;DHT22;34330;52.08032700;5.40923460;2024-03-06T04:52:28;7.70;95.30
6536;DHT22;34330;52.08032700;5.40923460;2024-03-06T04:54:56;7.70;95.40
6536;DHT22;34330;52.08032700;5.40923460;2024-03-06T04:57:26;7.60;95.10
6536;DHT22;34330;52.08032700;5.40923460;2024-03-06T04:59:54;7.70;95.10
6536;DHT22;34330;52.08032700;5.40923460;2024-03-06T05:02:24;7.60;95.00
6536;DHT22;34330;52.08032700;5.40923460;2024-03-06T05:04:52;7.60;95.00
6536;DHT22;34330;52.08032700;5.40923460;2024-03-06T05:07:38;7.90;95.10
6536;DHT22;34330;52.08032700;5.40923460;2024-03-06T05:10:23;7.50;94.90
6536;DHT22;34330;52.08032700;5.40923460;2024-03-06T05:13:11;7.50;94.80
6536;DHT22;34330;52.08032700;5.40923460;2024-03-06T05:15:58;7.50;94.70
6536;DHT22;34330;52.08032700;5.40923460;2024-03-06T05:18:43;7.40;94.90
6536;DHT22;34330;52.08032700;5.40923460;2024-03-06T05:21:29;7.40;94.90
6536;DHT22;34330;52.08032700;5.40923460;2024-03-06T05:24:14;7.40;95.00
6536;DHT22;34330;52.08032700;5.40923460;2024-03-06T05:26:59;7.40;95.10
6536;DHT22;34330;52.08032700;5.40923460;2024-03-06T05:29:47;7.40;95.20
6536;DHT22;34330;52.08032700;5.40923460;2024-03-06T05:32:32;7.30;95.30
6536;DHT22;34330;52.08032700;5.40923460;2024-03-06T05:35:18;7.30;95.20
6536;DHT22;34330;52.08032700;5.40923460;2024-03-06T05:38:04;7.30;95.20
6536;DHT22;34330;52.08032700;5.40923460;2024-03-06T05:40:51;7.30;95.30
6536;DHT22;34330;52.08032700;5.40923460;2024-03-06T05:43:36;7.30;95.40
6536;DHT22;34330;52.08032700;5.40923460;2024-03-06T05:46:23;7.30;95.50
6536;DHT22;34330;52.08032700;5.40923460;2024-03-06T05:49:09;7.30;95.60
6536;DHT22;34330;52.08032700;5.40923460;2024-03-06T05:51:56;7.30;95.70
6536;DHT22;34330;52.08032700;5.40923460;2024-03-06T05:54:41;7.30;95.60
6536;DHT22;34330;52.08032700;5.40923460;2024-03-06T05:57:27;8.80;96.10
6536;DHT22;34330;52.08032700;5.40923460;2024-03-06T06:00:13;7.40;95.60
6536;DHT22;34330;52.08032700;5.40923460;2024-03-06T06:02:43;7.40;95.60
6536;DHT22;34330;52.08032700;5.40923460;2024-03-06T06:05:13;7.30;95.70
6536;DHT22;34330;52.08032700;5.40923460;2024-03-06T06:07:49;7.30;95.70
6536;DHT22;34330;52.08032700;5.40923460;2024-03-06T06:10:18;7.40;95.70
6536;DHT22;34330;52.08032700;5.40923460;2024-03-06T06:12:48;7.40;95.60
6536;DHT22;34330;52.08032700;5.40923460;2024-03-06T06:15:16;7.40;95.80
6536;DHT22;34330;52.08032700;5.40923460;2024-03-06T06:17:46;7.40;95.80
6536;DHT22;34330;52.08032700;5.40923460;2024-03-06T06:20:14;7.40;95.80
6536;DHT22;34330;52.08032700;5.40923460;2024-03-06T06:22:44;7.50;95.90
6536;DHT22;34330;52.08032700;5.40923460;2024-03-06T06:25:12;7.40;95.90
6536;DHT22;34330;52.08032700;5.40923460;2024-03-06T06:27:40;7.40;95.80
6536;DHT22;34330;52.08032700;5.40923460;2024-03-06T06:30:08;7.40;95.80
6536;DHT22;34330;52.08032700;5.40923460;2024-03-06T06:32:39;7.40;95.90
6536;DHT22;34330;52.08032700;5.40923460;2024-03-06T06:35:11;7.40;95.90
6536;DHT22;34330;52.08032700;5.40923460;2024-03-06T06:37:40;7.50;96.00
6536;DHT22;34330;52.08032700;5.40923460;2024-03-06T06:40:09;7.40;95.90
6536;DHT22;34330;52.08032700;5.40923460;2024-03-06T06:42:44;7.50;96.10
6536;DHT22;34330;52.08032700;5.40923460;2024-03-06T06:45:16;7.50;96.20
6536;DHT22;34330;52.08032700;5.40923460;2024-03-06T06:47:44;7.50;96.20
6536;DHT22;34330;52.08032700;5.40923460;2024-03-06T06:50:15;7.50;96.30
6536;DHT22;34330;52.08032700;5.40923460;2024-03-06T06:52:43;7.50;96.30
6536;DHT22;34330;52.08032700;5.40923460;2024-03-06T06:55:11;7.50;96.20
6536;DHT22;34330;52.08032700;5.40923460;2024-03-06T06:57:39;7.50;96.20
6536;DHT22;34330;52.08032700;5.40923460;2024-03-06T07:00:08;7.50;96.30
6536;DHT22;34330;52.08032700;5.40923460;2024-03-06T07:02:39;7.50;96.30
6536;DHT22;34330;52.08032700;5.40923460;2024-03-06T07:05:08;7.50;96.30
6536;DHT22;34330;52.08032700;5.40923460;2024-03-06T07:07:38;7.50;96.20
6536;DHT22;34330;52.08032700;5.40923460;2024-03-06T07:10:07;7.50;96.20
6536;DHT22;34330;52.08032700;5.40923460;2024-03-06T07:12:36;7.50;96.20
6536;DHT22;34330;52.08032700;5.40923460;2024-03-06T07:15:04;5.60;95.40
6536;DHT22;34330;52.08032700;5.40923460;2024-03-06T07:17:33;7.50;96.30
6536;DHT22;34330;52.08032700;5.40923460;2024-03-06T07:20:02;7.50;96.40
6536;DHT22;34330;52.08032700;5.40923460;2024-03-06T07:22:32;7.50;96.50
6536;DHT22;34330;52.08032700;5.40923460;2024-03-06T07:25:02;7.40;96.40
6536;DHT22;34330;52.08032700;5.40923460;2024-03-06T07:27:32;7.40;96.50
6536;DHT22;34330;52.08032700;5.40923460;2024-03-06T07:30:00;7.40;96.60
6536;DHT22;34330;52.08032700;5.40923460;2024-03-06T07:32:28;7.50;96.80
6536;DHT22;34330;52.08032700;5.40923460;2024-03-06T07:34:56;7.50;97.00
6536;DHT22;34330;52.08032700;5.40923460;2024-03-06T07:37:26;7.50;97.20
6536;DHT22;34330;52.08032700;5.40923460;2024-03-06T07:39:54;7.50;97.40
6536;DHT22;34330;52.08032700;5.40923460;2024-03-06T07:42:23;7.60;97.60
6536;DHT22;34330;52.08032700;5.40923460;2024-03-06T07:44:51;7.60;97.70
6536;DHT22;34330;52.08032700;5.40923460;2024-03-06T07:47:20;7.70;97.70
6536;DHT22;34330;52.08032700;5.40923460;2024-03-06T07:49:48;7.80;97.70
6536;DHT22;34330;52.08032700;5.40923460;2024-03-06T07:52:17;7.80;97.60
6536;DHT22;34330;52.08032700;5.40923460;2024-03-06T07:54:45;7.90;97.60
6536;DHT22;34330;52.08032700;5.40923460;2024-03-06T07:57:13;7.90;97.50
6536;DHT22;34330;52.08032700;5.40923460;2024-03-06T07:59:43;7.90;97.50
6536;DHT22;34330;52.08032700;5.40923460;2024-03-06T08:02:11;8.20;97.60
6536;DHT22;34330;52.08032700;5.40923460;2024-03-06T08:04:39;8.10;97.60
6536;DHT22;34330;52.08032700;5.40923460;2024-03-06T08:07:07;8.10;97.70
6536;DHT22;34330;52.08032700;5.40923460;2024-03-06T08:09:34;8.10;97.80
6536;DHT22;34330;52.08032700;5.40923460;2024-03-06T08:12:03;8.20;97.80
6536;DHT22;34330;52.08032700;5.40923460;2024-03-06T08:14:31;8.30;97.90
6536;DHT22;34330;52.08032700;5.40923460;2024-03-06T08:17:00;8.30;97.80
6536;DHT22;34330;52.08032700;5.40923460;2024-03-06T08:19:29;8.40;97.80
6536;DHT22;34330;52.08032700;5.40923460;2024-03-06T08:21:59;8.40;97.90
6536;DHT22;34330;52.08032700;5.40923460;2024-03-06T08:24:32;8.50;98.00
6536;DHT22;34330;52.08032700;5.40923460;2024-03-06T08:27:00;8.50;97.80
6536;DHT22;34330;52.08032700;5.40923460;2024-03-06T08:29:28;8.60;97.80
6536;DHT22;34330;52.08032700;5.40923460;2024-03-06T08:31:56;8.70;98.00
6536;DHT22;34330;52.08032700;5.40923460;2024-03-06T08:34:28;8.70;98.00
6536;DHT22;34330;52.08032700;5.40923460;2024-03-06T08:36:56;8.80;98.20
6536;DHT22;34330;52.08032700;5.40923460;2024-03-06T08:39:26;8.80;98.30
6536;DHT22;34330;52.08032700;5.40923460;2024-03-06T08:41:54;8.80;98.50
6536;DHT22;34330;52.08032700;5.40923460;2024-03-06T08:44:24;8.90;98.60
6536;DHT22;34330;52.08032700;5.40923460;2024-03-06T08:46:52;9.00;98.80
6536;DHT22;34330;52.08032700;5.40923460;2024-03-06T08:49:20;9.00;98.80
6536;DHT22;34330;52.08032700;5.40923460;2024-03-06T08:51:49;9.10;98.90
6536;DHT22;34330;52.08032700;5.40923460;2024-03-06T08:54:17;9.20;99.10
6536;DHT22;34330;52.08032700;5.40923460;2024-03-06T08:56:45;9.20;99.00
6536;DHT22;34330;52.08032700;5.40923460;2024-03-06T08:59:13;9.30;99.00
6536;DHT22;34330;52.08032700;5.40923460;2024-03-06T09:01:41;9.40;98.90
6536;DHT22;34330;52.08032700;5.40923460;2024-03-06T09:04:09;9.50;99.00
6536;DHT22;34330;52.08032700;5.40923460;2024-03-06T09:06:37;9.50;99.00
6536;DHT22;34330;52.08032700;5.40923460;2024-03-06T09:09:07;9.50;99.00
6536;DHT22;34330;52.08032700;5.40923460;2024-03-06T09:11:36;9.70;99.20
6536;DHT22;34330;52.08032700;5.40923460;2024-03-06T09:14:04;9.60;99.10
6536;DHT22;34330;52.08032700;5.40923460;2024-03-06T09:16:32;9.70;99.20
6536;DHT22;34330;52.08032700;5.40923460;2024-03-06T09:19:00;9.70;99.30
6536;DHT22;34330;52.08032700;5.40923460;2024-03-06T09:21:28;9.80;99.40
6536;DHT22;34330;52.08032700;5.40923460;2024-03-06T09:23:56;10.00;98.80
6536;DHT22;34330;52.08032700;5.40923460;2024-03-06T09:26:26;9.90;99.50
6536;DHT22;34330;52.08032700;5.40923460;2024-03-06T09:28:54;10.00;99.10
6536;DHT22;34330;52.08032700;5.40923460;2024-03-06T09:31:24;10.10;99.10
6536;DHT22;34330;52.08032700;5.40923460;2024-03-06T09:33:54;10.10;99.10
6536;DHT22;34330;52.08032700;5.40923460;2024-03-06T09:36:23;10.20;99.10
6536;DHT22;34330;52.08032700;5.40923460;2024-03-06T09:38:52;10.30;99.10
6536;DHT22;34330;52.08032700;5.40923460;2024-03-06T09:41:20;10.40;99.00
6536;DHT22;34330;52.08032700;5.40923460;2024-03-06T09:43:49;10.40;99.00
6536;DHT22;34330;52.08032700;5.40923460;2024-03-06T09:46:17;10.50;99.00
6536;DHT22;34330;52.08032700;5.40923460;2024-03-06T09:48:51;10.50;98.70
6536;DHT22;34330;52.08032700;5.40923460;2024-03-06T09:51:19;10.60;98.80
6536;DHT22;34330;52.08032700;5.40923460;2024-03-06T09:53:49;10.60;98.80
6536;DHT22;34330;52.08032700;5.40923460;2024-03-06T09:56:19;10.30;98.70
6536;DHT22;34330;52.08032700;5.40923460;2024-03-06T09:58:48;11.50;99.20
6536;DHT22;34330;52.08032700;5.40923460;2024-03-06T10:01:17;10.70;98.90
6536;DHT22;34330;52.08032700;5.40923460;2024-03-06T10:03:45;10.80;99.00
6536;DHT22;34330;52.08032700;5.40923460;2024-03-06T10:06:13;10.80;98.90
6536;DHT22;34330;52.08032700;5.40923460;2024-03-06T10:08:42;10.90;99.00
6536;DHT22;34330;52.08032700;5.40923460;2024-03-06T10:11:11;11.00;99.00
6536;DHT22;34330;52.08032700;5.40923460;2024-03-06T10:13:39;11.00;98.90
6536;DHT22;34330;52.08032700;5.40923460;2024-03-06T10:16:09;11.10;99.00
6536;DHT22;34330;52.08032700;5.40923460;2024-03-06T10:18:38;11.20;99.10
6536;DHT22;34330;52.08032700;5.40923460;2024-03-06T10:21:06;11.30;99.10
6536;DHT22;34330;52.08032700;5.40923460;2024-03-06T10:23:35;11.30;99.10
6536;DHT22;34330;52.08032700;5.40923460;2024-03-06T10:26:07;11.40;99.10
6536;DHT22;34330;52.08032700;5.40923460;2024-03-06T10:28:35;11.50;99.00
6536;DHT22;34330;52.08032700;5.40923460;2024-03-06T10:31:04;11.60;98.90
6536;DHT22;34330;52.08032700;5.40923460;2024-03-06T10:33:35;11.60;98.80
6536;DHT22;34330;52.08032700;5.40923460;2024-03-06T10:36:05;11.70;98.60
6536;DHT22;34330;52.08032700;5.40923460;2024-03-06T10:38:36;11.80;98.40
6536;DHT22;34330;52.08032700;5.40923460;2024-03-06T10:41:08;11.80;98.40
6536;DHT22;34330;52.08032700;5.40923460;2024-03-06T10:43:44;11.90;98.30
6536;DHT22;34330;52.08032700;5.40923460;2024-03-06T10:46:15;11.90;98.10
6536;DHT22;34330;52.08032700;5.40923460;2024-03-06T10:48:48;12.00;98.10
6536;DHT22;34330;52.08032700;5.40923460;2024-03-06T10:51:21;12.00;97.90
6536;DHT22;34330;52.08032700;5.40923460;2024-03-06T10:53:50;12.00;97.80
6536;DHT22;34330;52.08032700;5.40923460;2024-03-06T10:56:21;12.00;97.80
6536;DHT22;34330;52.08032700;5.40923460;2024-03-06T10:58:50;12.00;97.70
6536;DHT22;34330;52.08032700;5.40923460;2024-03-06T11:01:19;12.00;97.50
6536;DHT22;34330;52.08032700;5.40923460;2024-03-06T11:03:49;12.10;97.50
6536;DHT22;34330;52.08032700;5.40923460;2024-03-06T11:06:17;12.00;97.60
6536;DHT22;34330;52.08032700;5.40923460;2024-03-06T11:08:46;12.10;97.50
6536;DHT22;34330;52.08032700;5.40923460;2024-03-06T11:11:21;12.00;97.70
6536;DHT22;34330;52.08032700;5.40923460;2024-03-06T11:13:54;12.00;97.60
6536;DHT22;34330;52.08032700;5.40923460;2024-03-06T11:16:28;12.10;97.70
6536;DHT22;34330;52.08032700;5.40923460;2024-03-06T11:19:08;12.10;97.70
6536;DHT22;34330;52.08032700;5.40923460;2024-03-06T11:21:45;12.10;97.90
6536;DHT22;34330;52.08032700;5.40923460;2024-03-06T11:24:21;12.20;97.80
6536;DHT22;34330;52.08032700;5.40923460;2024-03-06T11:26:56;12.20;97.90
6536;DHT22;34330;52.08032700;5.40923460;2024-03-06T11:30:03;12.20;97.90
6536;DHT22;34330;52.08032700;5.40923460;2024-03-06T11:32:32;12.30;97.90
6536;DHT22;34330;52.08032700;5.40923460;2024-03-06T11:35:02;12.30;97.80
6536;DHT22;34330;52.08032700;5.40923460;2024-03-06T11:37:33;12.40;97.80
6536;DHT22;34330;52.08032700;5.40923460;2024-03-06T11:40:03;12.40;98.20
6536;DHT22;34330;52.08032700;5.40923460;2024-03-06T11:42:35;12.50;98.40
6536;DHT22;34330;52.08032700;5.40923460;2024-03-06T11:45:13;12.60;98.40
6536;DHT22;34330;52.08032700;5.40923460;2024-03-06T11:47:56;12.70;98.20
6536;DHT22;34330;52.08032700;5.40923460;2024-03-06T11:50:26;12.80;98.10
6536;DHT22;34330;52.08032700;5.40923460;2024-03-06T11:52:55;12.90;97.90
6536;DHT22;34330;52.08032700;5.40923460;2024-03-06T11:55:24;13.00;98.10
6536;DHT22;34330;52.08032700;5.40923460;2024-03-06T11:57:53;13.10;98.10
6536;DHT22;34330;52.08032700;5.40923460;2024-03-06T12:00:22;13.20;97.80
6536;DHT22;34330;52.08032700;5.40923460;2024-03-06T12:02:50;13.20;97.50
6536;DHT22;34330;52.08032700;5.40923460;2024-03-06T12:05:18;13.30;97.50
6536;DHT22;34330;52.08032700;5.40923460;2024-03-06T12:07:49;13.40;97.50
6536;DHT22;34330;52.08032700;5.40923460;2024-03-06T12:10:18;13.40;97.50
6536;DHT22;34330;52.08032700;5.40923460;2024-03-06T12:12:48;15.00;98.00
6536;DHT22;34330;52.08032700;5.40923460;2024-03-06T12:15:16;13.60;97.40
6536;DHT22;34330;52.08032700;5.40923460;2024-03-06T12:17:48;13.60;97.60
6536;DHT22;34330;52.08032700;5.40923460;2024-03-06T12:20:18;13.70;97.70
6536;DHT22;34330;52.08032700;5.40923460;2024-03-06T12:22:50;14.00;97.40
6536;DHT22;34330;52.08032700;5.40923460;2024-03-06T12:25:19;13.90;97.40
6536;DHT22;34330;52.08032700;5.40923460;2024-03-06T12:27:47;13.90;97.10
6536;DHT22;34330;52.08032700;5.40923460;2024-03-06T12:30:16;14.00;97.00
6536;DHT22;34330;52.08032700;5.40923460;2024-03-06T12:32:45;14.10;96.80
6536;DHT22;34330;52.08032700;5.40923460;2024-03-06T12:35:24;14.10;96.70
6536;DHT22;34330;52.08032700;5.40923460;2024-03-06T12:37:54;14.20;96.50
6536;DHT22;34330;52.08032700;5.40923460;2024-03-06T12:40:22;14.30;96.20
6536;DHT22;34330;52.08032700;5.40923460;2024-03-06T12:42:50;14.40;95.90
6536;DHT22;34330;52.08032700;5.40923460;2024-03-06T12:45:20;14.50;95.90
6536;DHT22;34330;52.08032700;5.40923460;2024-03-06T12:47:48;14.60;95.60
6536;DHT22;34330;52.08032700;5.40923460;2024-03-06T12:50:16;14.70;95.20
6536;DHT22;34330;52.08032700;5.40923460;2024-03-06T12:52:44;14.70;94.80
6536;DHT22;34330;52.08032700;5.40923460;2024-03-06T12:55:14;14.80;94.70
6536;DHT22;34330;52.08032700;5.40923460;2024-03-06T12:57:42;14.80;94.60
6536;DHT22;34330;52.08032700;5.40923460;2024-03-06T13:00:11;14.90;94.60
6536;DHT22;34330;52.08032700;5.40923460;2024-03-06T13:02:43;14.90;94.50
6536;DHT22;34330;52.08032700;5.40923460;2024-03-06T13:05:11;15.00;94.40
6536;DHT22;34330;52.08032700;5.40923460;2024-03-06T13:07:42;15.00;94.50
6536;DHT22;34330;52.08032700;5.40923460;2024-03-06T13:10:10;15.00;94.40
6536;DHT22;34330;52.08032700;5.40923460;2024-03-06T13:12:40;15.10;94.00
6536;DHT22;34330;52.08032700;5.40923460;2024-03-06T13:15:08;15.10;93.60
6536;DHT22;34330;52.08032700;5.40923460;2024-03-06T13:17:36;15.10;93.60
6536;DHT22;34330;52.08032700;5.40923460;2024-03-06T13:20:07;15.10;93.70
6536;DHT22;34330;52.08032700;5.40923460;2024-03-06T13:22:38;15.10;93.50
6536;DHT22;34330;52.08032700;5.40923460;2024-03-06T13:25:07;15.00;93.20
6536;DHT22;34330;52.08032700;5.40923460;2024-03-06T13:27:35;15.00;93.10
6536;DHT22;34330;52.08032700;5.40923460;2024-03-06T13:30:06;15.00;92.90
6536;DHT22;34330;52.08032700;5.40923460;2024-03-06T13:32:35;15.00;92.90
6536;DHT22;34330;52.08032700;5.40923460;2024-03-06T13:35:03;14.90;93.00
6536;DHT22;34330;52.08032700;5.40923460;2024-03-06T13:37:33;14.90;92.90
6536;DHT22;34330;52.08032700;5.40923460;2024-03-06T13:40:02;14.90;93.00
6536;DHT22;34330;52.08032700;5.40923460;2024-03-06T13:42:31;14.90;92.90
6536;DHT22;34330;52.08032700;5.40923460;2024-03-06T13:44:59;16.30;93.50
6536;DHT22;34330;52.08032700;5.40923460;2024-03-06T13:47:28;14.90;92.80
6536;DHT22;34330;52.08032700;5.40923460;2024-03-06T13:49:57;14.80;92.70
6536;DHT22;34330;52.08032700;5.40923460;2024-03-06T13:52:25;14.80;92.70
6536;DHT22;34330;52.08032700;5.40923460;2024-03-06T13:54:53;14.80;92.70
6536;DHT22;34330;52.08032700;5.40923460;2024-03-06T13:57:21;14.80;92.40
6536;DHT22;34330;52.08032700;5.40923460;2024-03-06T13:59:49;14.80;92.40